sensor_id;sensor_type;location;lat;lon;timestamp;temperature;humidity
77693;SHT31;66984;47.404;18.836;2024-01-07T00:00:55;9.35;83.23
77693;SHT31;66984;47.404;18.836;2024-01-07T00:01:58;9.33;83.27
77693;SHT31;66984;47.404;18.836;2024-01-07T00:03:00;9.33;83.26
77693;SHT31;66984;47.404;18.836;2024-01-07T00:04:03;9.26;83.37
77693;SHT31;66984;47.404;18.836;2024-01-07T00:05:07;9.28;83.33
77693;SHT31;66984;47.404;18.836;2024-01-07T00:06:10;9.25;83.39
77693;SHT31;66984;47.404;18.836;2024-01-07T00:07:13;9.26;83.53
77693;SHT31;66984;47.404;18.836;2024-01-07T00:08:16;9.23;83.57
77693;SHT31;66984;47.404;18.836;2024-01-07T00:09:18;9.28;83.56
77693;SHT31;66984;47.404;18.836;2024-01-07T00:10:21;9.23;83.37
77693;SHT31;66984;47.404;18.836;2024-01-07T00:11:24;9.19;83.66
77693;SHT31;66984;47.404;18.836;2024-01-07T00:12:27;9.18;83.59
77693;SHT31;66984;47.404;18.836;2024-01-07T00:13:30;9.18;83.69
77693;SHT31;66984;47.404;18.836;2024-01-07T00:14:33;9.15;83.68
77693;SHT31;66984;47.404;18.836;2024-01-07T00:15:36;9.12;83.78
77693;SHT31;66984;47.404;18.836;2024-01-07T00:16:40;9.11;83.84
77693;SHT31;66984;47.404;18.836;2024-01-07T00:17:42;9.09;83.87
77693;SHT31;66984;47.404;18.836;2024-01-07T00:18:46;9.09;83.92
77693;SHT31;66984;47.404;18.836;2024-01-07T00:19:49;9.09;84.13
77693;SHT31;66984;47.404;18.836;2024-01-07T00:20:53;9.12;84.03
77693;SHT31;66984;47.404;18.836;2024-01-07T00:21:55;9.14;84.01
77693;SHT31;66984;47.404;18.836;2024-01-07T00:22:58;9.12;83.93
77693;SHT31;66984;47.404;18.836;2024-01-07T00:24:01;9.08;83.71
77693;SHT31;66984;47.404;18.836;2024-01-07T00:25:04;9.09;83.76
77693;SHT31;66984;47.404;18.836;2024-01-07T00:26:07;9.09;83.86
77693;SHT31;66984;47.404;18.836;2024-01-07T00:27:10;9.11;83.86
77693;SHT31;66984;47.404;18.836;2024-01-07T00:28:13;9.11;83.85
77693;SHT31;66984;47.404;18.836;2024-01-07T00:29:15;9.11;83.85
77693;SHT31;66984;47.404;18.836;2024-01-07T00:30:18;9.12;83.83
77693;SHT31;66984;47.404;18.836;2024-01-07T00:31:22;9.12;83.75
77693;SHT31;66984;47.404;18.836;2024-01-07T00:32:25;9.14;83.71
77693;SHT31;66984;47.404;18.836;2024-01-07T00:33:30;9.16;83.63
77693;SHT31;66984;47.404;18.836;2024-01-07T00:34:34;9.15;83.72
77693;SHT31;66984;47.404;18.836;2024-01-07T00:35:37;9.15;83.64
77693;SHT31;66984;47.404;18.836;2024-01-07T00:36:40;9.12;83.65
77693;SHT31;66984;47.404;18.836;2024-01-07T00:37:43;9.12;83.68
77693;SHT31;66984;47.404;18.836;2024-01-07T00:38:45;9.08;83.70
77693;SHT31;66984;47.404;18.836;2024-01-07T00:39:48;9.02;83.82
77693;SHT31;66984;47.404;18.836;2024-01-07T00:40:51;9.07;83.82
77693;SHT31;66984;47.404;18.836;2024-01-07T00:41:54;9.07;83.86
77693;SHT31;66984;47.404;18.836;2024-01-07T00:42:57;9.04;83.97
77693;SHT31;66984;47.404;18.836;2024-01-07T00:44:00;9.04;83.94
77693;SHT31;66984;47.404;18.836;2024-01-07T00:45:03;8.98;83.93
77693;SHT31;66984;47.404;18.836;2024-01-07T00:46:06;8.97;83.99
77693;SHT31;66984;47.404;18.836;2024-01-07T00:47:09;9.01;83.99
77693;SHT31;66984;47.404;18.836;2024-01-07T00:48:13;9.01;83.90
77693;SHT31;66984;47.404;18.836;2024-01-07T00:49:16;8.98;83.75
77693;SHT31;66984;47.404;18.836;2024-01-07T00:50:20;8.98;83.84
77693;SHT31;66984;47.404;18.836;2024-01-07T00:51:22;8.98;83.79
77693;SHT31;66984;47.404;18.836;2024-01-07T00:52:26;8.99;83.76
77693;SHT31;66984;47.404;18.836;2024-01-07T00:53:28;9.02;83.79
77693;SHT31;66984;47.404;18.836;2024-01-07T00:54:31;9.04;83.77
77693;SHT31;66984;47.404;18.836;2024-01-07T00:55:34;9.02;83.75
77693;SHT31;66984;47.404;18.836;2024-01-07T00:56:40;9.04;83.55
77693;SHT31;66984;47.404;18.836;2024-01-07T00:57:42;9.07;83.55
77693;SHT31;66984;47.404;18.836;2024-01-07T00:58:45;9.05;83.46
77693;SHT31;66984;47.404;18.836;2024-01-07T00:59:50;9.04;83.36
77693;SHT31;66984;47.404;18.836;2024-01-07T01:00:53;9.02;83.50
77693;SHT31;66984;47.404;18.836;2024-01-07T01:01:56;9.05;83.54
77693;SHT31;66984;47.404;18.836;2024-01-07T01:02:59;9.04;83.54
77693;SHT31;66984;47.404;18.836;2024-01-07T01:04:02;9.05;83.56
77693;SHT31;66984;47.404;18.836;2024-01-07T01:05:06;8.99;83.46
77693;SHT31;66984;47.404;18.836;2024-01-07T01:06:09;9.02;83.47
77693;SHT31;66984;47.404;18.836;2024-01-07T01:07:11;9.04;83.61
77693;SHT31;66984;47.404;18.836;2024-01-07T01:08:14;9.04;83.59
77693;SHT31;66984;47.404;18.836;2024-01-07T01:09:19;9.04;83.60
77693;SHT31;66984;47.404;18.836;2024-01-07T01:10:21;9.07;83.53
77693;SHT31;66984;47.404;18.836;2024-01-07T01:11:27;9.05;83.60
77693;SHT31;66984;47.404;18.836;2024-01-07T01:12:30;9.05;83.47
77693;SHT31;66984;47.404;18.836;2024-01-07T01:13:32;9.04;83.42
77693;SHT31;66984;47.404;18.836;2024-01-07T01:14:35;9.05;83.41
77693;SHT31;66984;47.404;18.836;2024-01-07T01:15:38;9.04;83.43
77693;SHT31;66984;47.404;18.836;2024-01-07T01:16:41;9.04;83.45
77693;SHT31;66984;47.404;18.836;2024-01-07T01:17:44;9.05;83.40
77693;SHT31;66984;47.404;18.836;2024-01-07T01:18:47;9.05;83.39
77693;SHT31;66984;47.404;18.836;2024-01-07T01:19:50;8.98;83.48
77693;SHT31;66984;47.404;18.836;2024-01-07T01:20:53;8.97;83.42
77693;SHT31;66984;47.404;18.836;2024-01-07T01:21:58;9.01;83.37
77693;SHT31;66984;47.404;18.836;2024-01-07T01:23:01;8.99;83.35
77693;SHT31;66984;47.404;18.836;2024-01-07T01:24:04;9.01;83.31
77693;SHT31;66984;47.404;18.836;2024-01-07T01:25:07;8.98;83.29
77693;SHT31;66984;47.404;18.836;2024-01-07T01:26:10;8.97;83.23
77693;SHT31;66984;47.404;18.836;2024-01-07T01:27:13;8.95;83.20
77693;SHT31;66984;47.404;18.836;2024-01-07T01:28:17;8.92;83.34
77693;SHT31;66984;47.404;18.836;2024-01-07T01:29:20;8.91;83.53
77693;SHT31;66984;47.404;18.836;2024-01-07T01:30:23;8.91;83.54
77693;SHT31;66984;47.404;18.836;2024-01-07T01:31:26;8.85;83.37
77693;SHT31;66984;47.404;18.836;2024-01-07T01:32:29;8.82;83.51
77693;SHT31;66984;47.404;18.836;2024-01-07T01:33:32;8.81;83.79
77693;SHT31;66984;47.404;18.836;2024-01-07T01:34:35;8.78;83.73
77693;SHT31;66984;47.404;18.836;2024-01-07T01:35:38;8.79;83.81
77693;SHT31;66984;47.404;18.836;2024-01-07T01:36:41;8.75;84.02
77693;SHT31;66984;47.404;18.836;2024-01-07T01:37:44;8.78;83.99
77693;SHT31;66984;47.404;18.836;2024-01-07T01:38:47;8.78;83.90
77693;SHT31;66984;47.404;18.836;2024-01-07T01:39:51;8.81;83.86
77693;SHT31;66984;47.404;18.836;2024-01-07T01:40:54;8.75;83.74
77693;SHT31;66984;47.404;18.836;2024-01-07T01:41:57;8.78;83.85
77693;SHT31;66984;47.404;18.836;2024-01-07T01:43:00;8.78;83.88
77693;SHT31;66984;47.404;18.836;2024-01-07T01:44:03;8.81;83.92
77693;SHT31;66984;47.404;18.836;2024-01-07T01:45:06;8.82;83.81
77693;SHT31;66984;47.404;18.836;2024-01-07T01:46:12;8.79;83.81
77693;SHT31;66984;47.404;18.836;2024-01-07T01:47:16;8.78;83.69
77693;SHT31;66984;47.404;18.836;2024-01-07T01:48:19;8.74;83.76
77693;SHT31;66984;47.404;18.836;2024-01-07T01:49:22;8.71;84.11
77693;SHT31;66984;47.404;18.836;2024-01-07T01:50:26;8.70;84.21
77693;SHT31;66984;47.404;18.836;2024-01-07T01:51:29;8.68;84.14
77693;SHT31;66984;47.404;18.836;2024-01-07T01:52:32;8.67;84.30
77693;SHT31;66984;47.404;18.836;2024-01-07T01:53:39;8.65;84.26
77693;SHT31;66984;47.404;18.836;2024-01-07T01:54:42;8.65;84.16
77693;SHT31;66984;47.404;18.836;2024-01-07T01:55:45;8.64;84.18
77693;SHT31;66984;47.404;18.836;2024-01-07T01:56:48;8.64;84.27
77693;SHT31;66984;47.404;18.836;2024-01-07T01:57:52;8.60;84.29
77693;SHT31;66984;47.404;18.836;2024-01-07T01:58:57;8.60;84.41
77693;SHT31;66984;47.404;18.836;2024-01-07T02:00:04;8.61;84.44
77693;SHT31;66984;47.404;18.836;2024-01-07T02:01:07;8.56;84.52
77693;SHT31;66984;47.404;18.836;2024-01-07T02:02:11;8.57;84.56
77693;SHT31;66984;47.404;18.836;2024-01-07T02:03:13;8.54;84.52
77693;SHT31;66984;47.404;18.836;2024-01-07T02:04:17;8.57;84.55
77693;SHT31;66984;47.404;18.836;2024-01-07T02:05:20;8.53;84.54
77693;SHT31;66984;47.404;18.836;2024-01-07T02:06:25;8.54;84.49
77693;SHT31;66984;47.404;18.836;2024-01-07T02:07:30;8.54;84.58
77693;SHT31;66984;47.404;18.836;2024-01-07T02:08:33;8.57;84.63
77693;SHT31;66984;47.404;18.836;2024-01-07T02:09:36;8.57;84.61
77693;SHT31;66984;47.404;18.836;2024-01-07T02:10:39;8.60;84.55
77693;SHT31;66984;47.404;18.836;2024-01-07T02:12:03;8.57;84.49
77693;SHT31;66984;47.404;18.836;2024-01-07T02:13:06;8.60;84.40
77693;SHT31;66984;47.404;18.836;2024-01-07T02:14:09;8.58;84.52
77693;SHT31;66984;47.404;18.836;2024-01-07T02:15:12;8.61;84.54
77693;SHT31;66984;47.404;18.836;2024-01-07T02:16:15;8.60;84.49
77693;SHT31;66984;47.404;18.836;2024-01-07T02:17:19;8.61;84.44
77693;SHT31;66984;47.404;18.836;2024-01-07T02:18:22;8.58;84.56
77693;SHT31;66984;47.404;18.836;2024-01-07T02:19:25;8.57;84.64
77693;SHT31;66984;47.404;18.836;2024-01-07T02:20:28;8.58;84.62
77693;SHT31;66984;47.404;18.836;2024-01-07T02:21:31;8.58;84.59
77693;SHT31;66984;47.404;18.836;2024-01-07T02:22:34;8.64;84.59
77693;SHT31;66984;47.404;18.836;2024-01-07T02:23:37;8.64;84.51
77693;SHT31;66984;47.404;18.836;2024-01-07T02:24:40;8.65;84.49
77693;SHT31;66984;47.404;18.836;2024-01-07T02:25:43;8.70;84.48
77693;SHT31;66984;47.404;18.836;2024-01-07T02:26:46;8.65;84.43
77693;SHT31;66984;47.404;18.836;2024-01-07T02:27:49;8.67;84.39
77693;SHT31;66984;47.404;18.836;2024-01-07T02:28:52;8.74;84.39
77693;SHT31;66984;47.404;18.836;2024-01-07T02:29:54;8.72;84.39
77693;SHT31;66984;47.404;18.836;2024-01-07T02:30:57;8.77;84.39
77693;SHT31;66984;47.404;18.836;2024-01-07T02:32:00;8.77;84.20
77693;SHT31;66984;47.404;18.836;2024-01-07T02:33:04;8.81;84.09
77693;SHT31;66984;47.404;18.836;2024-01-07T02:34:09;8.81;84.13
77693;SHT31;66984;47.404;18.836;2024-01-07T02:35:12;8.79;84.06
77693;SHT31;66984;47.404;18.836;2024-01-07T02:36:15;8.82;84.09
77693;SHT31;66984;47.404;18.836;2024-01-07T02:37:19;8.84;84.03
77693;SHT31;66984;47.404;18.836;2024-01-07T02:38:21;8.87;84.02
77693;SHT31;66984;47.404;18.836;2024-01-07T02:39:24;8.89;83.93
77693;SHT31;66984;47.404;18.836;2024-01-07T02:40:28;8.87;83.80
77693;SHT31;66984;47.404;18.836;2024-01-07T02:41:31;8.88;83.81
77693;SHT31;66984;47.404;18.836;2024-01-07T02:42:34;8.88;83.68
77693;SHT31;66984;47.404;18.836;2024-01-07T02:43:36;8.92;83.65
77693;SHT31;66984;47.404;18.836;2024-01-07T02:44:41;8.92;83.68
77693;SHT31;66984;47.404;18.836;2024-01-07T02:45:44;8.92;83.66
77693;SHT31;66984;47.404;18.836;2024-01-07T02:46:46;8.91;83.65
77693;SHT31;66984;47.404;18.836;2024-01-07T02:47:50;8.97;83.64
77693;SHT31;66984;47.404;18.836;2024-01-07T02:48:53;8.98;83.60
77693;SHT31;66984;47.404;18.836;2024-01-07T02:49:56;9.04;83.61
77693;SHT31;66984;47.404;18.836;2024-01-07T02:50:59;9.05;83.56
77693;SHT31;66984;47.404;18.836;2024-01-07T02:52:01;9.02;83.40
77693;SHT31;66984;47.404;18.836;2024-01-07T02:53:04;8.99;83.37
77693;SHT31;66984;47.404;18.836;2024-01-07T02:54:07;9.01;83.43
77693;SHT31;66984;47.404;18.836;2024-01-07T02:55:10;9.04;83.42
77693;SHT31;66984;47.404;18.836;2024-01-07T02:56:13;9.04;83.43
77693;SHT31;66984;47.404;18.836;2024-01-07T02:57:16;9.05;83.44
77693;SHT31;66984;47.404;18.836;2024-01-07T02:58:19;9.05;83.40
77693;SHT31;66984;47.404;18.836;2024-01-07T02:59:22;9.05;83.38
77693;SHT31;66984;47.404;18.836;2024-01-07T03:00:25;9.05;83.32
77693;SHT31;66984;47.404;18.836;2024-01-07T03:01:28;9.07;83.29
77693;SHT31;66984;47.404;18.836;2024-01-07T03:02:31;9.07;83.32
77693;SHT31;66984;47.404;18.836;2024-01-07T03:03:34;9.07;83.26
77693;SHT31;66984;47.404;18.836;2024-01-07T03:04:37;9.07;83.35
77693;SHT31;66984;47.404;18.836;2024-01-07T03:05:39;9.09;83.29
77693;SHT31;66984;47.404;18.836;2024-01-07T03:06:42;9.12;83.25
77693;SHT31;66984;47.404;18.836;2024-01-07T03:07:45;9.12;83.20
77693;SHT31;66984;47.404;18.836;2024-01-07T03:08:48;9.14;83.21
77693;SHT31;66984;47.404;18.836;2024-01-07T03:09:52;9.16;83.21
77693;SHT31;66984;47.404;18.836;2024-01-07T03:10:54;9.16;83.21
77693;SHT31;66984;47.404;18.836;2024-01-07T03:11:57;9.18;83.18
77693;SHT31;66984;47.404;18.836;2024-01-07T03:13:01;9.18;83.13
77693;SHT31;66984;47.404;18.836;2024-01-07T03:14:04;9.20;83.16
77693;SHT31;66984;47.404;18.836;2024-01-07T03:15:07;9.22;83.07
77693;SHT31;66984;47.404;18.836;2024-01-07T03:16:22;9.23;83.02
77693;SHT31;66984;47.404;18.836;2024-01-07T03:17:25;9.22;82.93
77693;SHT31;66984;47.404;18.836;2024-01-07T03:18:28;9.23;82.91
77693;SHT31;66984;47.404;18.836;2024-01-07T03:19:32;9.25;82.83
77693;SHT31;66984;47.404;18.836;2024-01-07T03:20:35;9.25;82.76
77693;SHT31;66984;47.404;18.836;2024-01-07T03:21:39;9.26;82.57
77693;SHT31;66984;47.404;18.836;2024-01-07T03:22:42;9.25;82.52
77693;SHT31;66984;47.404;18.836;2024-01-07T03:23:45;9.25;82.56
77693;SHT31;66984;47.404;18.836;2024-01-07T03:24:48;9.26;82.59
77693;SHT31;66984;47.404;18.836;2024-01-07T03:25:51;9.28;82.59
77693;SHT31;66984;47.404;18.836;2024-01-07T03:26:54;9.26;82.61
77693;SHT31;66984;47.404;18.836;2024-01-07T03:27:57;9.26;82.64
77693;SHT31;66984;47.404;18.836;2024-01-07T03:29:00;9.28;82.53
77693;SHT31;66984;47.404;18.836;2024-01-07T03:30:05;9.23;82.60
77693;SHT31;66984;47.404;18.836;2024-01-07T03:31:13;9.26;82.58
77693;SHT31;66984;47.404;18.836;2024-01-07T03:32:16;9.28;82.62
77693;SHT31;66984;47.404;18.836;2024-01-07T03:33:19;9.26;82.68
77693;SHT31;66984;47.404;18.836;2024-01-07T03:34:22;9.28;82.68
77693;SHT31;66984;47.404;18.836;2024-01-07T03:35:25;9.25;82.66
77693;SHT31;66984;47.404;18.836;2024-01-07T03:36:28;9.26;82.69
77693;SHT31;66984;47.404;18.836;2024-01-07T03:37:31;9.26;82.72
77693;SHT31;66984;47.404;18.836;2024-01-07T03:38:34;9.25;82.74
77693;SHT31;66984;47.404;18.836;2024-01-07T03:39:37;9.23;82.82
77693;SHT31;66984;47.404;18.836;2024-01-07T03:40:40;9.23;82.84
77693;SHT31;66984;47.404;18.836;2024-01-07T03:41:43;9.28;82.84
77693;SHT31;66984;47.404;18.836;2024-01-07T03:42:45;9.29;82.84
77693;SHT31;66984;47.404;18.836;2024-01-07T03:43:49;9.28;82.79
77693;SHT31;66984;47.404;18.836;2024-01-07T03:44:52;9.30;82.75
77693;SHT31;66984;47.404;18.836;2024-01-07T03:45:55;9.29;82.77
77693;SHT31;66984;47.404;18.836;2024-01-07T03:46:58;9.32;82.74
77693;SHT31;66984;47.404;18.836;2024-01-07T03:48:00;9.33;82.75
77693;SHT31;66984;47.404;18.836;2024-01-07T03:49:03;9.33;82.73
77693;SHT31;66984;47.404;18.836;2024-01-07T03:50:07;9.33;82.74
77693;SHT31;66984;47.404;18.836;2024-01-07T03:51:10;9.33;82.73
77693;SHT31;66984;47.404;18.836;2024-01-07T03:52:12;9.35;82.69
77693;SHT31;66984;47.404;18.836;2024-01-07T03:53:16;9.33;82.65
77693;SHT31;66984;47.404;18.836;2024-01-07T03:54:18;9.35;82.63
77693;SHT31;66984;47.404;18.836;2024-01-07T03:55:21;9.36;82.60
77693;SHT31;66984;47.404;18.836;2024-01-07T03:56:24;9.36;82.58
77693;SHT31;66984;47.404;18.836;2024-01-07T03:57:27;9.37;82.54
77693;SHT31;66984;47.404;18.836;2024-01-07T03:58:30;9.39;82.53
77693;SHT31;66984;47.404;18.836;2024-01-07T03:59:33;9.39;82.54
77693;SHT31;66984;47.404;18.836;2024-01-07T04:00:36;9.39;82.53
77693;SHT31;66984;47.404;18.836;2024-01-07T04:01:39;9.40;82.48
77693;SHT31;66984;47.404;18.836;2024-01-07T04:02:42;9.39;82.51
77693;SHT31;66984;47.404;18.836;2024-01-07T04:03:46;9.35;82.50
77693;SHT31;66984;47.404;18.836;2024-01-07T04:04:49;9.39;82.48
77693;SHT31;66984;47.404;18.836;2024-01-07T04:05:52;9.39;82.45
77693;SHT31;66984;47.404;18.836;2024-01-07T04:06:56;9.39;82.42
77693;SHT31;66984;47.404;18.836;2024-01-07T04:08:02;9.39;82.33
77693;SHT31;66984;47.404;18.836;2024-01-07T04:09:05;9.39;82.33
77693;SHT31;66984;47.404;18.836;2024-01-07T04:10:08;9.40;82.35
77693;SHT31;66984;47.404;18.836;2024-01-07T04:11:11;9.37;82.38
77693;SHT31;66984;47.404;18.836;2024-01-07T04:12:14;9.36;82.41
77693;SHT31;66984;47.404;18.836;2024-01-07T04:13:17;9.40;82.41
77693;SHT31;66984;47.404;18.836;2024-01-07T04:14:22;9.40;82.46
77693;SHT31;66984;47.404;18.836;2024-01-07T04:15:24;9.37;82.44
77693;SHT31;66984;47.404;18.836;2024-01-07T04:16:27;9.39;82.48
77693;SHT31;66984;47.404;18.836;2024-01-07T04:17:30;9.36;82.53
77693;SHT31;66984;47.404;18.836;2024-01-07T04:18:33;9.37;82.51
77693;SHT31;66984;47.404;18.836;2024-01-07T04:19:37;9.37;82.53
77693;SHT31;66984;47.404;18.836;2024-01-07T04:20:40;9.43;82.53
77693;SHT31;66984;47.404;18.836;2024-01-07T04:21:46;9.43;82.51
77693;SHT31;66984;47.404;18.836;2024-01-07T04:22:49;9.43;82.44
77693;SHT31;66984;47.404;18.836;2024-01-07T04:23:52;9.43;82.48
77693;SHT31;66984;47.404;18.836;2024-01-07T04:24:55;9.43;82.47
77693;SHT31;66984;47.404;18.836;2024-01-07T04:25:58;9.43;82.42
77693;SHT31;66984;47.404;18.836;2024-01-07T04:27:00;9.44;82.45
77693;SHT31;66984;47.404;18.836;2024-01-07T04:28:03;9.46;82.43
77693;SHT31;66984;47.404;18.836;2024-01-07T04:29:06;9.43;82.41
77693;SHT31;66984;47.404;18.836;2024-01-07T04:30:09;9.44;82.46
77693;SHT31;66984;47.404;18.836;2024-01-07T04:31:13;9.43;82.44
77693;SHT31;66984;47.404;18.836;2024-01-07T04:32:16;9.42;82.39
77693;SHT31;66984;47.404;18.836;2024-01-07T04:33:19;9.39;82.42
77693;SHT31;66984;47.404;18.836;2024-01-07T04:34:21;9.43;82.43
77693;SHT31;66984;47.404;18.836;2024-01-07T04:35:25;9.42;82.43
77693;SHT31;66984;47.404;18.836;2024-01-07T04:36:29;9.42;82.44
77693;SHT31;66984;47.404;18.836;2024-01-07T04:37:32;9.43;82.45
77693;SHT31;66984;47.404;18.836;2024-01-07T04:38:35;9.43;82.45
77693;SHT31;66984;47.404;18.836;2024-01-07T04:39:39;9.43;82.49
77693;SHT31;66984;47.404;18.836;2024-01-07T04:40:42;9.39;82.55
77693;SHT31;66984;47.404;18.836;2024-01-07T04:41:45;9.42;82.58
77693;SHT31;66984;47.404;18.836;2024-01-07T04:42:48;9.44;82.53
77693;SHT31;66984;47.404;18.836;2024-01-07T04:43:51;9.42;82.54
77693;SHT31;66984;47.404;18.836;2024-01-07T04:44:54;9.42;82.54
77693;SHT31;66984;47.404;18.836;2024-01-07T04:45:57;9.43;82.55
77693;SHT31;66984;47.404;18.836;2024-01-07T04:47:00;9.42;82.51
77693;SHT31;66984;47.404;18.836;2024-01-07T04:48:03;9.44;82.54
77693;SHT31;66984;47.404;18.836;2024-01-07T04:49:06;9.42;82.50
77693;SHT31;66984;47.404;18.836;2024-01-07T04:50:09;9.42;82.53
77693;SHT31;66984;47.404;18.836;2024-01-07T04:51:12;9.43;82.56
77693;SHT31;66984;47.404;18.836;2024-01-07T04:52:15;9.43;82.56
77693;SHT31;66984;47.404;18.836;2024-01-07T04:53:17;9.43;82.54
77693;SHT31;66984;47.404;18.836;2024-01-07T04:54:22;9.44;82.53
77693;SHT31;66984;47.404;18.836;2024-01-07T04:55:25;9.42;82.55
77693;SHT31;66984;47.404;18.836;2024-01-07T04:56:28;9.44;82.51
77693;SHT31;66984;47.404;18.836;2024-01-07T04:57:30;9.43;82.56
77693;SHT31;66984;47.404;18.836;2024-01-07T04:58:33;9.44;82.50
77693;SHT31;66984;47.404;18.836;2024-01-07T04:59:36;9.43;82.53
77693;SHT31;66984;47.404;18.836;2024-01-07T05:00:39;9.43;82.44
77693;SHT31;66984;47.404;18.836;2024-01-07T05:01:42;9.42;82.43
77693;SHT31;66984;47.404;18.836;2024-01-07T05:02:44;9.43;82.51
77693;SHT31;66984;47.404;18.836;2024-01-07T05:03:47;9.42;82.52
77693;SHT31;66984;47.404;18.836;2024-01-07T05:04:50;9.40;82.52
77693;SHT31;66984;47.404;18.836;2024-01-07T05:05:53;9.42;82.55
77693;SHT31;66984;47.404;18.836;2024-01-07T05:06:56;9.39;82.54
77693;SHT31;66984;47.404;18.836;2024-01-07T05:07:59;9.43;82.57
77693;SHT31;66984;47.404;18.836;2024-01-07T05:09:03;9.40;82.60
77693;SHT31;66984;47.404;18.836;2024-01-07T05:10:06;9.37;82.62
77693;SHT31;66984;47.404;18.836;2024-01-07T05:11:09;9.37;82.68
77693;SHT31;66984;47.404;18.836;2024-01-07T05:12:13;9.36;82.71
77693;SHT31;66984;47.404;18.836;2024-01-07T05:13:16;9.35;82.76
77693;SHT31;66984;47.404;18.836;2024-01-07T05:14:20;9.32;82.80
77693;SHT31;66984;47.404;18.836;2024-01-07T05:15:23;9.33;82.84
77693;SHT31;66984;47.404;18.836;2024-01-07T05:16:25;9.28;82.80
77693;SHT31;66984;47.404;18.836;2024-01-07T05:17:29;9.28;82.87
77693;SHT31;66984;47.404;18.836;2024-01-07T05:18:31;9.26;82.95
77693;SHT31;66984;47.404;18.836;2024-01-07T05:19:35;9.29;82.98
77693;SHT31;66984;47.404;18.836;2024-01-07T05:20:39;9.29;82.96
77693;SHT31;66984;47.404;18.836;2024-01-07T05:21:42;9.29;83.00
77693;SHT31;66984;47.404;18.836;2024-01-07T05:22:45;9.32;83.01
77693;SHT31;66984;47.404;18.836;2024-01-07T05:23:48;9.33;82.96
77693;SHT31;66984;47.404;18.836;2024-01-07T05:24:50;9.30;82.96
77693;SHT31;66984;47.404;18.836;2024-01-07T05:25:59;9.26;83.02
77693;SHT31;66984;47.404;18.836;2024-01-07T05:27:02;9.32;82.98
77693;SHT31;66984;47.404;18.836;2024-01-07T05:28:05;9.30;83.01
77693;SHT31;66984;47.404;18.836;2024-01-07T05:29:15;9.33;83.01
77693;SHT31;66984;47.404;18.836;2024-01-07T05:30:24;9.35;82.97
77693;SHT31;66984;47.404;18.836;2024-01-07T05:31:30;9.29;82.99
77693;SHT31;66984;47.404;18.836;2024-01-07T05:32:33;9.32;82.97
77693;SHT31;66984;47.404;18.836;2024-01-07T05:33:44;9.30;82.94
77693;SHT31;66984;47.404;18.836;2024-01-07T05:34:49;9.29;82.94
77693;SHT31;66984;47.404;18.836;2024-01-07T05:35:52;9.26;82.96
77693;SHT31;66984;47.404;18.836;2024-01-07T05:36:55;9.26;83.08
77693;SHT31;66984;47.404;18.836;2024-01-07T05:38:00;9.25;83.08
77693;SHT31;66984;47.404;18.836;2024-01-07T05:39:04;9.16;83.16
77693;SHT31;66984;47.404;18.836;2024-01-07T05:40:07;9.16;83.31
77693;SHT31;66984;47.404;18.836;2024-01-07T05:41:10;9.12;83.37
77693;SHT31;66984;47.404;18.836;2024-01-07T05:42:13;9.14;83.43
77693;SHT31;66984;47.404;18.836;2024-01-07T05:43:16;9.14;83.41
77693;SHT31;66984;47.404;18.836;2024-01-07T05:44:19;9.15;83.42
77693;SHT31;66984;47.404;18.836;2024-01-07T05:45:22;9.16;83.41
77693;SHT31;66984;47.404;18.836;2024-01-07T05:46:25;9.18;83.43
77693;SHT31;66984;47.404;18.836;2024-01-07T05:47:30;9.20;83.39
77693;SHT31;66984;47.404;18.836;2024-01-07T05:48:46;9.19;83.36
77693;SHT31;66984;47.404;18.836;2024-01-07T05:49:50;9.20;83.41
77693;SHT31;66984;47.404;18.836;2024-01-07T05:50:54;9.18;83.36
77693;SHT31;66984;47.404;18.836;2024-01-07T05:51:58;9.18;83.31
77693;SHT31;66984;47.404;18.836;2024-01-07T05:53:01;9.16;83.34
77693;SHT31;66984;47.404;18.836;2024-01-07T05:54:04;9.16;83.30
77693;SHT31;66984;47.404;18.836;2024-01-07T05:55:08;9.16;83.42
77693;SHT31;66984;47.404;18.836;2024-01-07T05:56:11;9.16;83.47
77693;SHT31;66984;47.404;18.836;2024-01-07T05:57:14;9.15;83.43
77693;SHT31;66984;47.404;18.836;2024-01-07T05:58:16;9.15;83.44
77693;SHT31;66984;47.404;18.836;2024-01-07T05:59:19;9.12;83.32
77693;SHT31;66984;47.404;18.836;2024-01-07T06:00:22;9.15;83.32
77693;SHT31;66984;47.404;18.836;2024-01-07T06:01:25;9.12;83.37
77693;SHT31;66984;47.404;18.836;2024-01-07T06:02:30;9.11;83.37
77693;SHT31;66984;47.404;18.836;2024-01-07T06:03:33;9.11;83.42
77693;SHT31;66984;47.404;18.836;2024-01-07T06:04:39;9.12;83.42
77693;SHT31;66984;47.404;18.836;2024-01-07T06:05:42;9.12;83.34
77693;SHT31;66984;47.404;18.836;2024-01-07T06:06:45;9.11;83.35
77693;SHT31;66984;47.404;18.836;2024-01-07T06:07:51;9.12;83.32
77693;SHT31;66984;47.404;18.836;2024-01-07T06:08:54;9.09;83.29
77693;SHT31;66984;47.404;18.836;2024-01-07T06:09:59;9.07;83.39
77693;SHT31;66984;47.404;18.836;2024-01-07T06:11:03;9.05;83.40
77693;SHT31;66984;47.404;18.836;2024-01-07T06:12:06;9.05;83.51
77693;SHT31;66984;47.404;18.836;2024-01-07T06:13:09;9.04;83.54
77693;SHT31;66984;47.404;18.836;2024-01-07T06:14:12;9.01;83.61
77693;SHT31;66984;47.404;18.836;2024-01-07T06:15:15;8.97;83.72
77693;SHT31;66984;47.404;18.836;2024-01-07T06:16:18;8.99;83.69
77693;SHT31;66984;47.404;18.836;2024-01-07T06:17:20;9.01;83.71
77693;SHT31;66984;47.404;18.836;2024-01-07T06:18:23;8.95;83.76
77693;SHT31;66984;47.404;18.836;2024-01-07T06:19:26;8.95;83.75
77693;SHT31;66984;47.404;18.836;2024-01-07T06:20:29;8.97;83.82
77693;SHT31;66984;47.404;18.836;2024-01-07T06:21:32;8.95;83.88
77693;SHT31;66984;47.404;18.836;2024-01-07T06:22:35;8.92;83.81
77693;SHT31;66984;47.404;18.836;2024-01-07T06:23:38;8.95;83.81
77693;SHT31;66984;47.404;18.836;2024-01-07T06:24:41;8.93;83.85
77693;SHT31;66984;47.404;18.836;2024-01-07T06:25:44;8.92;83.97
77693;SHT31;66984;47.404;18.836;2024-01-07T06:26:48;8.93;83.91
77693;SHT31;66984;47.404;18.836;2024-01-07T06:27:51;8.95;83.88
77693;SHT31;66984;47.404;18.836;2024-01-07T06:28:54;8.87;84.00
77693;SHT31;66984;47.404;18.836;2024-01-07T06:29:57;8.89;84.04
77693;SHT31;66984;47.404;18.836;2024-01-07T06:31:03;8.91;84.05
77693;SHT31;66984;47.404;18.836;2024-01-07T06:32:07;8.89;84.08
77693;SHT31;66984;47.404;18.836;2024-01-07T06:33:10;8.85;84.01
77693;SHT31;66984;47.404;18.836;2024-01-07T06:34:13;8.84;84.15
77693;SHT31;66984;47.404;18.836;2024-01-07T06:35:16;8.85;84.15
77693;SHT31;66984;47.404;18.836;2024-01-07T06:36:19;8.89;84.15
77693;SHT31;66984;47.404;18.836;2024-01-07T06:37:22;8.89;84.15
77693;SHT31;66984;47.404;18.836;2024-01-07T06:38:25;8.91;84.04
77693;SHT31;66984;47.404;18.836;2024-01-07T06:39:28;8.88;84.09
77693;SHT31;66984;47.404;18.836;2024-01-07T06:40:30;8.89;84.06